sensor_id;sensor_type;location;lat;lon;timestamp;temperature;humidity
2907;DHT22;1463;51.070;16.998;2023-04-25T00:01:16;11.90;99.90
2907;DHT22;1463;51.070;16.998;2023-04-25T00:03:44;11.80;99.90
2907;DHT22;1463;51.070;16.998;2023-04-25T00:06:12;11.90;99.90
2907;DHT22;1463;51.070;16.998;2023-04-25T00:08:41;11.90;99.90
2907;DHT22;1463;51.070;16.998;2023-04-25T00:11:08;11.90;99.90
2907;DHT22;1463;51.070;16.998;2023-04-25T00:13:36;11.90;99.90
2907;DHT22;1463;51.070;16.998;2023-04-25T00:16:04;11.80;99.90
2907;DHT22;1463;51.070;16.998;2023-04-25T00:18:32;11.80;99.90
2907;DHT22;1463;51.070;16.998;2023-04-25T00:21:00;11.80;99.90
2907;DHT22;1463;51.070;16.998;2023-04-25T00:23:28;11.80;99.90
2907;DHT22;1463;51.070;16.998;2023-04-25T00:25:57;11.80;99.90
2907;DHT22;1463;51.070;16.998;2023-04-25T00:28:25;11.90;99.90
2907;DHT22;1463;51.070;16.998;2023-04-25T00:30:52;11.80;99.90
2907;DHT22;1463;51.070;16.998;2023-04-25T00:33:19;11.80;99.90
2907;DHT22;1463;51.070;16.998;2023-04-25T00:35:47;11.80;99.90
2907;DHT22;1463;51.070;16.998;2023-04-25T00:38:14;11.70;99.90
2907;DHT22;1463;51.070;16.998;2023-04-25T00:40:42;11.70;99.90
2907;DHT22;1463;51.070;16.998;2023-04-25T00:43:12;11.70;99.90
2907;DHT22;1463;51.070;16.998;2023-04-25T00:45:39;11.70;99.90
2907;DHT22;1463;51.070;16.998;2023-04-25T00:48:07;11.70;99.90
2907;DHT22;1463;51.070;16.998;2023-04-25T00:50:34;11.60;99.90
2907;DHT22;1463;51.070;16.998;2023-04-25T00:53:02;11.60;99.90
2907;DHT22;1463;51.070;16.998;2023-04-25T00:55:30;11.60;99.90
2907;DHT22;1463;51.070;16.998;2023-04-25T00:58:00;11.50;99.90
2907;DHT22;1463;51.070;16.998;2023-04-25T01:00:29;11.50;99.90
2907;DHT22;1463;51.070;16.998;2023-04-25T01:02:57;11.50;99.90
2907;DHT22;1463;51.070;16.998;2023-04-25T01:05:26;11.50;99.90
2907;DHT22;1463;51.070;16.998;2023-04-25T01:07:53;11.50;99.90
2907;DHT22;1463;51.070;16.998;2023-04-25T01:10:21;11.50;99.90
2907;DHT22;1463;51.070;16.998;2023-04-25T01:12:48;11.50;99.90
2907;DHT22;1463;51.070;16.998;2023-04-25T01:15:16;11.40;99.90
2907;DHT22;1463;51.070;16.998;2023-04-25T01:17:45;11.30;99.90
2907;DHT22;1463;51.070;16.998;2023-04-25T01:20:14;11.40;99.90
2907;DHT22;1463;51.070;16.998;2023-04-25T01:22:43;11.30;99.90
2907;DHT22;1463;51.070;16.998;2023-04-25T01:25:11;11.30;99.90
2907;DHT22;1463;51.070;16.998;2023-04-25T01:27:39;11.30;99.90
2907;DHT22;1463;51.070;16.998;2023-04-25T01:30:08;11.20;99.90
2907;DHT22;1463;51.070;16.998;2023-04-25T01:32:36;11.30;99.90
2907;DHT22;1463;51.070;16.998;2023-04-25T01:35:06;11.20;99.90
2907;DHT22;1463;51.070;16.998;2023-04-25T01:37:35;11.20;99.90
2907;DHT22;1463;51.070;16.998;2023-04-25T01:40:06;11.10;99.90
2907;DHT22;1463;51.070;16.998;2023-04-25T01:42:34;11.10;99.90
2907;DHT22;1463;51.070;16.998;2023-04-25T01:45:03;11.00;99.90
2907;DHT22;1463;51.070;16.998;2023-04-25T01:47:30;11.10;99.90
2907;DHT22;1463;51.070;16.998;2023-04-25T01:49:58;11.00;99.90
2907;DHT22;1463;51.070;16.998;2023-04-25T01:52:25;11.00;99.90
2907;DHT22;1463;51.070;16.998;2023-04-25T01:54:53;11.00;99.90
2907;DHT22;1463;51.070;16.998;2023-04-25T01:57:22;11.00;99.90
2907;DHT22;1463;51.070;16.998;2023-04-25T01:59:50;11.00;99.90
2907;DHT22;1463;51.070;16.998;2023-04-25T02:02:19;10.90;99.90
2907;DHT22;1463;51.070;16.998;2023-04-25T02:04:46;10.90;99.90
2907;DHT22;1463;51.070;16.998;2023-04-25T02:07:14;11.00;99.90
2907;DHT22;1463;51.070;16.998;2023-04-25T02:09:41;11.00;99.90
2907;DHT22;1463;51.070;16.998;2023-04-25T02:12:10;11.00;99.90
2907;DHT22;1463;51.070;16.998;2023-04-25T02:14:39;11.00;99.90
2907;DHT22;1463;51.070;16.998;2023-04-25T02:17:06;10.90;99.90
2907;DHT22;1463;51.070;16.998;2023-04-25T02:19:33;11.00;99.90
2907;DHT22;1463;51.070;16.998;2023-04-25T02:22:01;11.00;99.90
2907;DHT22;1463;51.070;16.998;2023-04-25T02:24:29;10.90;99.90
2907;DHT22;1463;51.070;16.998;2023-04-25T02:26:57;10.90;99.90
2907;DHT22;1463;51.070;16.998;2023-04-25T02:29:25;10.80;99.90
2907;DHT22;1463;51.070;16.998;2023-04-25T02:31:54;10.70;99.90
2907;DHT22;1463;51.070;16.998;2023-04-25T02:34:21;10.80;99.90
2907;DHT22;1463;51.070;16.998;2023-04-25T02:36:49;10.80;99.90
2907;DHT22;1463;51.070;16.998;2023-04-25T02:39:16;10.80;99.90
2907;DHT22;1463;51.070;16.998;2023-04-25T02:41:44;10.80;99.90
2907;DHT22;1463;51.070;16.998;2023-04-25T02:44:11;10.70;99.90
2907;DHT22;1463;51.070;16.998;2023-04-25T02:46:38;10.70;99.90
2907;DHT22;1463;51.070;16.998;2023-04-25T02:49:07;10.60;99.90
2907;DHT22;1463;51.070;16.998;2023-04-25T02:51:35;10.60;99.90
2907;DHT22;1463;51.070;16.998;2023-04-25T02:54:03;10.60;99.90
2907;DHT22;1463;51.070;16.998;2023-04-25T02:56:30;10.60;99.90
2907;DHT22;1463;51.070;16.998;2023-04-25T02:58:58;10.60;99.90
2907;DHT22;1463;51.070;16.998;2023-04-25T03:01:25;10.60;99.90
2907;DHT22;1463;51.070;16.998;2023-04-25T03:03:53;10.60;99.90
2907;DHT22;1463;51.070;16.998;2023-04-25T03:06:21;10.60;99.90
2907;DHT22;1463;51.070;16.998;2023-04-25T03:08:49;10.60;99.90
2907;DHT22;1463;51.070;16.998;2023-04-25T03:11:16;10.60;99.90
2907;DHT22;1463;51.070;16.998;2023-04-25T03:13:46;10.60;99.90
2907;DHT22;1463;51.070;16.998;2023-04-25T03:16:13;10.60;99.90
2907;DHT22;1463;51.070;16.998;2023-04-25T03:18:41;10.60;99.90
2907;DHT22;1463;51.070;16.998;2023-04-25T03:21:08;10.50;99.90
2907;DHT22;1463;51.070;16.998;2023-04-25T03:23:37;10.50;99.90
2907;DHT22;1463;51.070;16.998;2023-04-25T03:26:05;10.50;99.90
2907;DHT22;1463;51.070;16.998;2023-04-25T03:28:32;10.50;99.90
2907;DHT22;1463;51.070;16.998;2023-04-25T03:30:59;10.50;99.90
2907;DHT22;1463;51.070;16.998;2023-04-25T03:33:27;10.60;99.90
2907;DHT22;1463;51.070;16.998;2023-04-25T03:35:54;10.60;99.90
2907;DHT22;1463;51.070;16.998;2023-04-25T03:38:21;10.50;99.90
2907;DHT22;1463;51.070;16.998;2023-04-25T03:40:51;10.50;99.90
2907;DHT22;1463;51.070;16.998;2023-04-25T03:43:18;10.50;99.90
2907;DHT22;1463;51.070;16.998;2023-04-25T03:45:46;10.50;99.90
2907;DHT22;1463;51.070;16.998;2023-04-25T03:48:13;10.50;99.90
2907;DHT22;1463;51.070;16.998;2023-04-25T03:50:41;10.60;99.90
2907;DHT22;1463;51.070;16.998;2023-04-25T03:53:08;10.60;99.90
2907;DHT22;1463;51.070;16.998;2023-04-25T03:55:35;10.50;99.90
2907;DHT22;1463;51.070;16.998;2023-04-25T03:58:04;10.40;99.90
2907;DHT22;1463;51.070;16.998;2023-04-25T04:00:32;10.50;99.90
2907;DHT22;1463;51.070;16.998;2023-04-25T04:02:59;10.50;99.90
2907;DHT22;1463;51.070;16.998;2023-04-25T04:05:27;10.40;99.90
2907;DHT22;1463;51.070;16.998;2023-04-25T04:07:54;10.40;99.90
2907;DHT22;1463;51.070;16.998;2023-04-25T04:10:22;10.40;99.90
2907;DHT22;1463;51.070;16.998;2023-04-25T04:12:49;10.50;99.90
2907;DHT22;1463;51.070;16.998;2023-04-25T04:15:18;10.50;99.90
2907;DHT22;1463;51.070;16.998;2023-04-25T04:17:46;10.50;99.90
2907;DHT22;1463;51.070;16.998;2023-04-25T04:20:13;10.50;99.90
2907;DHT22;1463;51.070;16.998;2023-04-25T04:22:41;10.50;99.90
2907;DHT22;1463;51.070;16.998;2023-04-25T04:25:09;10.40;99.90
2907;DHT22;1463;51.070;16.998;2023-04-25T04:27:37;10.40;99.90
2907;DHT22;1463;51.070;16.998;2023-04-25T04:30:07;10.40;99.90
2907;DHT22;1463;51.070;16.998;2023-04-25T04:32:36;10.40;99.90
2907;DHT22;1463;51.070;16.998;2023-04-25T04:35:05;10.40;99.90
2907;DHT22;1463;51.070;16.998;2023-04-25T04:37:33;10.40;99.90
2907;DHT22;1463;51.070;16.998;2023-04-25T04:40:00;10.40;99.90
2907;DHT22;1463;51.070;16.998;2023-04-25T04:42:31;10.40;99.90
2907;DHT22;1463;51.070;16.998;2023-04-25T04:44:59;10.40;99.90
2907;DHT22;1463;51.070;16.998;2023-04-25T04:47:27;10.60;99.90
2907;DHT22;1463;51.070;16.998;2023-04-25T04:49:59;10.60;99.90
2907;DHT22;1463;51.070;16.998;2023-04-25T04:52:27;10.60;99.90
2907;DHT22;1463;51.070;16.998;2023-04-25T04:54:54;10.60;99.90
2907;DHT22;1463;51.070;16.998;2023-04-25T04:57:21;10.60;99.90
2907;DHT22;1463;51.070;16.998;2023-04-25T04:59:49;10.60;99.90
2907;DHT22;1463;51.070;16.998;2023-04-25T05:02:16;10.60;99.90
2907;DHT22;1463;51.070;16.998;2023-04-25T05:04:44;10.60;99.90
2907;DHT22;1463;51.070;16.998;2023-04-25T05:07:13;10.70;99.90
2907;DHT22;1463;51.070;16.998;2023-04-25T05:09:41;10.60;99.90
2907;DHT22;1463;51.070;16.998;2023-04-25T05:12:08;10.60;99.90
2907;DHT22;1463;51.070;16.998;2023-04-25T05:14:38;10.60;99.90
2907;DHT22;1463;51.070;16.998;2023-04-25T05:17:06;10.60;99.90
2907;DHT22;1463;51.070;16.998;2023-04-25T05:19:34;10.60;99.90
2907;DHT22;1463;51.070;16.998;2023-04-25T05:22:02;10.60;99.90
2907;DHT22;1463;51.070;16.998;2023-04-25T05:24:31;10.70;99.90
2907;DHT22;1463;51.070;16.998;2023-04-25T05:26:58;10.80;99.90
2907;DHT22;1463;51.070;16.998;2023-04-25T05:29:26;10.80;99.90
2907;DHT22;1463;51.070;16.998;2023-04-25T05:31:53;10.80;99.90
2907;DHT22;1463;51.070;16.998;2023-04-25T05:34:20;10.80;99.90
2907;DHT22;1463;51.070;16.998;2023-04-25T05:36:48;10.80;99.90
2907;DHT22;1463;51.070;16.998;2023-04-25T05:39:16;10.90;99.90
2907;DHT22;1463;51.070;16.998;2023-04-25T05:41:45;10.90;99.90
2907;DHT22;1463;51.070;16.998;2023-04-25T05:44:12;10.90;99.90
2907;DHT22;1463;51.070;16.998;2023-04-25T05:46:41;10.90;99.90
2907;DHT22;1463;51.070;16.998;2023-04-25T05:49:09;10.90;99.90
2907;DHT22;1463;51.070;16.998;2023-04-25T05:51:36;11.00;99.90
2907;DHT22;1463;51.070;16.998;2023-04-25T05:54:04;11.00;99.90
2907;DHT22;1463;51.070;16.998;2023-04-25T05:56:31;11.10;99.90
2907;DHT22;1463;51.070;16.998;2023-04-25T05:59:00;11.10;99.90
2907;DHT22;1463;51.070;16.998;2023-04-25T06:01:27;11.00;99.90
2907;DHT22;1463;51.070;16.998;2023-04-25T06:03:55;11.20;99.90
2907;DHT22;1463;51.070;16.998;2023-04-25T06:06:22;11.30;99.90
2907;DHT22;1463;51.070;16.998;2023-04-25T06:08:50;11.30;99.90
2907;DHT22;1463;51.070;16.998;2023-04-25T06:11:17;11.30;99.90
2907;DHT22;1463;51.070;16.998;2023-04-25T06:13:45;11.30;99.90
2907;DHT22;1463;51.070;16.998;2023-04-25T06:16:14;11.30;99.90
2907;DHT22;1463;51.070;16.998;2023-04-25T06:18:41;11.30;99.90
2907;DHT22;1463;51.070;16.998;2023-04-25T06:21:09;11.40;99.90
2907;DHT22;1463;51.070;16.998;2023-04-25T06:23:36;11.40;99.90
2907;DHT22;1463;51.070;16.998;2023-04-25T06:26:04;11.50;99.90
2907;DHT22;1463;51.070;16.998;2023-04-25T06:28:31;11.50;99.90
2907;DHT22;1463;51.070;16.998;2023-04-25T06:30:59;11.50;99.90
2907;DHT22;1463;51.070;16.998;2023-04-25T06:33:28;11.60;99.90
2907;DHT22;1463;51.070;16.998;2023-04-25T06:35:56;11.70;99.90
2907;DHT22;1463;51.070;16.998;2023-04-25T06:38:23;11.70;99.90
2907;DHT22;1463;51.070;16.998;2023-04-25T06:40:51;11.70;99.90
2907;DHT22;1463;51.070;16.998;2023-04-25T06:43:18;11.70;99.90
2907;DHT22;1463;51.070;16.998;2023-04-25T06:45:45;11.80;99.90
2907;DHT22;1463;51.070;16.998;2023-04-25T06:48:13;11.80;99.90
2907;DHT22;1463;51.070;16.998;2023-04-25T06:50:42;11.90;99.90
2907;DHT22;1463;51.070;16.998;2023-04-25T06:53:10;12.00;99.90
2907;DHT22;1463;51.070;16.998;2023-04-25T06:55:38;12.00;99.90
2907;DHT22;1463;51.070;16.998;2023-04-25T06:58:06;12.00;99.90
2907;DHT22;1463;51.070;16.998;2023-04-25T07:00:34;12.10;99.90
2907;DHT22;1463;51.070;16.998;2023-04-25T07:03:01;12.00;99.90
2907;DHT22;1463;51.070;16.998;2023-04-25T07:05:29;12.20;99.90
2907;DHT22;1463;51.070;16.998;2023-04-25T07:07:58;12.20;99.90
2907;DHT22;1463;51.070;16.998;2023-04-25T07:10:26;12.30;99.90
2907;DHT22;1463;51.070;16.998;2023-04-25T07:12:53;12.40;99.90
2907;DHT22;1463;51.070;16.998;2023-04-25T07:15:21;12.30;99.90
2907;DHT22;1463;51.070;16.998;2023-04-25T07:17:48;12.40;99.90
2907;DHT22;1463;51.070;16.998;2023-04-25T07:20:16;12.40;99.90
2907;DHT22;1463;51.070;16.998;2023-04-25T07:22:43;12.30;99.90
2907;DHT22;1463;51.070;16.998;2023-04-25T07:25:12;12.30;99.90
2907;DHT22;1463;51.070;16.998;2023-04-25T07:27:40;12.20;99.90
2907;DHT22;1463;51.070;16.998;2023-04-25T07:30:08;12.20;99.90
2907;DHT22;1463;51.070;16.998;2023-04-25T07:32:36;12.30;99.90
2907;DHT22;1463;51.070;16.998;2023-04-25T07:35:04;12.30;99.90
2907;DHT22;1463;51.070;16.998;2023-04-25T07:37:33;12.30;99.90
2907;DHT22;1463;51.070;16.998;2023-04-25T07:40:00;12.30;99.90
2907;DHT22;1463;51.070;16.998;2023-04-25T07:42:31;12.30;99.90
2907;DHT22;1463;51.070;16.998;2023-04-25T07:44:58;12.30;99.90
2907;DHT22;1463;51.070;16.998;2023-04-25T07:47:26;12.40;99.90
2907;DHT22;1463;51.070;16.998;2023-04-25T07:49:53;12.60;99.90
2907;DHT22;1463;51.070;16.998;2023-04-25T07:52:22;12.60;99.90
2907;DHT22;1463;51.070;16.998;2023-04-25T07:54:49;12.60;99.90
2907;DHT22;1463;51.070;16.998;2023-04-25T07:57:16;12.60;99.90
2907;DHT22;1463;51.070;16.998;2023-04-25T07:59:46;12.70;99.90
2907;DHT22;1463;51.070;16.998;2023-04-25T08:02:14;12.70;99.90
2907;DHT22;1463;51.070;16.998;2023-04-25T08:04:41;12.80;99.90
2907;DHT22;1463;51.070;16.998;2023-04-25T08:07:09;12.80;99.90
2907;DHT22;1463;51.070;16.998;2023-04-25T08:09:36;13.00;99.90
2907;DHT22;1463;51.070;16.998;2023-04-25T08:12:04;13.00;99.90
2907;DHT22;1463;51.070;16.998;2023-04-25T08:14:31;13.00;99.90
2907;DHT22;1463;51.070;16.998;2023-04-25T08:17:03;13.10;99.90
2907;DHT22;1463;51.070;16.998;2023-04-25T08:19:31;13.00;99.90
2907;DHT22;1463;51.070;16.998;2023-04-25T08:21:58;13.00;99.90
2907;DHT22;1463;51.070;16.998;2023-04-25T08:24:25;13.00;99.90
2907;DHT22;1463;51.070;16.998;2023-04-25T08:26:53;12.90;99.90
2907;DHT22;1463;51.070;16.998;2023-04-25T08:29:20;12.80;99.90
2907;DHT22;1463;51.070;16.998;2023-04-25T08:31:49;12.80;99.90
2907;DHT22;1463;51.070;16.998;2023-04-25T08:34:19;12.90;99.90
2907;DHT22;1463;51.070;16.998;2023-04-25T08:36:47;12.80;99.90
2907;DHT22;1463;51.070;16.998;2023-04-25T08:39:14;12.80;99.90
2907;DHT22;1463;51.070;16.998;2023-04-25T08:41:42;12.80;99.90
2907;DHT22;1463;51.070;16.998;2023-04-25T08:44:11;12.70;99.90
2907;DHT22;1463;51.070;16.998;2023-04-25T08:46:38;12.70;99.90
2907;DHT22;1463;51.070;16.998;2023-04-25T08:49:07;12.80;99.90
2907;DHT22;1463;51.070;16.998;2023-04-25T08:51:44;13.00;99.90
2907;DHT22;1463;51.070;16.998;2023-04-25T08:54:14;13.40;99.90
2907;DHT22;1463;51.070;16.998;2023-04-25T08:56:44;13.70;99.90
2907;DHT22;1463;51.070;16.998;2023-04-25T08:59:12;13.90;99.90
2907;DHT22;1463;51.070;16.998;2023-04-25T09:01:40;14.00;99.90
2907;DHT22;1463;51.070;16.998;2023-04-25T09:04:07;14.00;99.90
2907;DHT22;1463;51.070;16.998;2023-04-25T09:06:37;14.20;99.90
2907;DHT22;1463;51.070;16.998;2023-04-25T09:09:05;14.20;99.50
2907;DHT22;1463;51.070;16.998;2023-04-25T09:11:33;14.20;99.90
2907;DHT22;1463;51.070;16.998;2023-04-25T09:14:15;14.20;99.90
2907;DHT22;1463;51.070;16.998;2023-04-25T09:17:01;14.50;99.90
2907;DHT22;1463;51.070;16.998;2023-04-25T09:19:31;14.50;98.60
2907;DHT22;1463;51.070;16.998;2023-04-25T09:22:02;14.50;96.00
2907;DHT22;1463;51.070;16.998;2023-04-25T09:24:33;14.60;96.00
2907;DHT22;1463;51.070;16.998;2023-04-25T09:27:04;14.30;95.10
2907;DHT22;1463;51.070;16.998;2023-04-25T09:29:32;14.20;95.20
2907;DHT22;1463;51.070;16.998;2023-04-25T09:32:17;14.10;95.40
2907;DHT22;1463;51.070;16.998;2023-04-25T09:34:46;14.00;95.50
2907;DHT22;1463;51.070;16.998;2023-04-25T09:37:21;13.90;95.50
2907;DHT22;1463;51.070;16.998;2023-04-25T09:39:50;13.70;95.10
2907;DHT22;1463;51.070;16.998;2023-04-25T09:42:18;13.60;94.00
2907;DHT22;1463;51.070;16.998;2023-04-25T09:44:46;13.60;95.50
2907;DHT22;1463;51.070;16.998;2023-04-25T09:47:14;13.80;96.00
2907;DHT22;1463;51.070;16.998;2023-04-25T09:49:44;13.90;95.90
2907;DHT22;1463;51.070;16.998;2023-04-25T09:52:15;14.00;97.30
2907;DHT22;1463;51.070;16.998;2023-04-25T09:54:44;13.90;96.00
2907;DHT22;1463;51.070;16.998;2023-04-25T09:57:13;13.90;96.60
2907;DHT22;1463;51.070;16.998;2023-04-25T09:59:44;14.10;99.70
2907;DHT22;1463;51.070;16.998;2023-04-25T10:02:12;14.20;96.90
2907;DHT22;1463;51.070;16.998;2023-04-25T10:04:41;14.30;97.50
2907;DHT22;1463;51.070;16.998;2023-04-25T10:07:09;14.30;97.90
2907;DHT22;1463;51.070;16.998;2023-04-25T10:09:37;14.40;98.00
2907;DHT22;1463;51.070;16.998;2023-04-25T10:12:07;14.50;97.70
2907;DHT22;1463;51.070;16.998;2023-04-25T10:14:35;14.60;97.90
2907;DHT22;1463;51.070;16.998;2023-04-25T10:17:03;14.70;96.60
2907;DHT22;1463;51.070;16.998;2023-04-25T10:19:30;14.60;96.90
2907;DHT22;1463;51.070;16.998;2023-04-25T10:22:07;14.70;96.60
2907;DHT22;1463;51.070;16.998;2023-04-25T10:24:36;14.90;96.60
2907;DHT22;1463;51.070;16.998;2023-04-25T10:27:06;15.00;96.30
2907;DHT22;1463;51.070;16.998;2023-04-25T10:29:35;15.10;96.10
2907;DHT22;1463;51.070;16.998;2023-04-25T10:32:03;15.20;96.40
2907;DHT22;1463;51.070;16.998;2023-04-25T10:34:40;15.20;95.30
2907;DHT22;1463;51.070;16.998;2023-04-25T10:37:11;15.20;94.90
2907;DHT22;1463;51.070;16.998;2023-04-25T10:39:40;15.10;94.90
2907;DHT22;1463;51.070;16.998;2023-04-25T10:42:09;15.00;93.90
2907;DHT22;1463;51.070;16.998;2023-04-25T10:44:38;14.80;93.40
2907;DHT22;1463;51.070;16.998;2023-04-25T10:47:07;14.70;93.00
2907;DHT22;1463;51.070;16.998;2023-04-25T10:49:37;14.50;93.10
2907;DHT22;1463;51.070;16.998;2023-04-25T10:52:12;14.50;93.50
2907;DHT22;1463;51.070;16.998;2023-04-25T10:54:46;14.60;94.10
2907;DHT22;1463;51.070;16.998;2023-04-25T10:57:38;15.00;93.10
2907;DHT22;1463;51.070;16.998;2023-04-25T11:00:08;15.10;93.00
2907;DHT22;1463;51.070;16.998;2023-04-25T11:02:44;15.10;92.00
2907;DHT22;1463;51.070;16.998;2023-04-25T11:05:23;15.00;92.30
2907;DHT22;1463;51.070;16.998;2023-04-25T11:07:55;14.90;92.20
2907;DHT22;1463;51.070;16.998;2023-04-25T11:10:26;14.80;92.10
2907;DHT22;1463;51.070;16.998;2023-04-25T11:12:55;14.80;90.60
2907;DHT22;1463;51.070;16.998;2023-04-25T11:15:23;14.90;90.10
2907;DHT22;1463;51.070;16.998;2023-04-25T11:17:51;15.00;89.10
2907;DHT22;1463;51.070;16.998;2023-04-25T11:20:19;15.10;89.00
2907;DHT22;1463;51.070;16.998;2023-04-25T11:22:47;15.10;88.50
2907;DHT22;1463;51.070;16.998;2023-04-25T11:25:16;15.10;88.60
2907;DHT22;1463;51.070;16.998;2023-04-25T11:27:50;15.20;86.70
2907;DHT22;1463;51.070;16.998;2023-04-25T11:30:21;15.20;85.20
2907;DHT22;1463;51.070;16.998;2023-04-25T11:32:49;15.20;85.20
2907;DHT22;1463;51.070;16.998;2023-04-25T11:35:18;15.10;84.60
2907;DHT22;1463;51.070;16.998;2023-04-25T11:37:46;14.80;85.80
2907;DHT22;1463;51.070;16.998;2023-04-25T11:40:14;14.80;85.70
2907;DHT22;1463;51.070;16.998;2023-04-25T11:42:44;14.80;84.20
2907;DHT22;1463;51.070;16.998;2023-04-25T11:45:12;14.80;83.70
2907;DHT22;1463;51.070;16.998;2023-04-25T11:47:41;14.60;84.50
2907;DHT22;1463;51.070;16.998;2023-04-25T11:50:09;14.70;83.50
2907;DHT22;1463;51.070;16.998;2023-04-25T11:52:38;14.70;84.10
2907;DHT22;1463;51.070;16.998;2023-04-25T11:55:08;14.80;84.20
2907;DHT22;1463;51.070;16.998;2023-04-25T11:57:38;14.80;84.30
2907;DHT22;1463;51.070;16.998;2023-04-25T12:00:08;14.90;84.20
2907;DHT22;1463;51.070;16.998;2023-04-25T12:02:37;14.90;83.70
2907;DHT22;1463;51.070;16.998;2023-04-25T12:05:08;14.90;82.70
2907;DHT22;1463;51.070;16.998;2023-04-25T12:07:36;14.90;83.30
2907;DHT22;1463;51.070;16.998;2023-04-25T12:10:05;15.00;84.20
2907;DHT22;1463;51.070;16.998;2023-04-25T12:12:34;14.90;82.70
2907;DHT22;1463;51.070;16.998;2023-04-25T12:15:12;14.90;83.20
2907;DHT22;1463;51.070;16.998;2023-04-25T12:17:42;14.90;82.00
2907;DHT22;1463;51.070;16.998;2023-04-25T12:20:14;14.80;82.00
2907;DHT22;1463;51.070;16.998;2023-04-25T12:22:42;14.80;83.60
2907;DHT22;1463;51.070;16.998;2023-04-25T12:25:12;14.90;82.80
2907;DHT22;1463;51.070;16.998;2023-04-25T12:27:40;14.80;82.80
2907;DHT22;1463;51.070;16.998;2023-04-25T12:30:10;14.80;83.40
2907;DHT22;1463;51.070;16.998;2023-04-25T12:32:38;14.70;83.30
2907;DHT22;1463;51.070;16.998;2023-04-25T12:35:06;14.70;84.30
2907;DHT22;1463;51.070;16.998;2023-04-25T12:37:35;14.80;83.00
2907;DHT22;1463;51.070;16.998;2023-04-25T12:40:03;14.80;82.80
2907;DHT22;1463;51.070;16.998;2023-04-25T12:42:32;14.80;83.50
2907;DHT22;1463;51.070;16.998;2023-04-25T12:45:00;15.00;83.00
2907;DHT22;1463;51.070;16.998;2023-04-25T12:47:27;15.30;84.10
2907;DHT22;1463;51.070;16.998;2023-04-25T12:49:55;15.50;80.80
2907;DHT22;1463;51.070;16.998;2023-04-25T12:52:22;15.50;79.40
2907;DHT22;1463;51.070;16.998;2023-04-25T12:54:51;15.40;79.00
2907;DHT22;1463;51.070;16.998;2023-04-25T12:57:19;15.10;78.80
2907;DHT22;1463;51.070;16.998;2023-04-25T12:59:47;15.00;78.90
2907;DHT22;1463;51.070;16.998;2023-04-25T13:02:14;15.00;80.70
2907;DHT22;1463;51.070;16.998;2023-04-25T13:04:42;14.90;80.00
2907;DHT22;1463;51.070;16.998;2023-04-25T13:07:09;15.00;79.70
2907;DHT22;1463;51.070;16.998;2023-04-25T13:09:37;15.00;79.70
2907;DHT22;1463;51.070;16.998;2023-04-25T13:12:06;15.10;81.20
2907;DHT22;1463;51.070;16.998;2023-04-25T13:14:33;15.30;80.50
2907;DHT22;1463;51.070;16.998;2023-04-25T13:17:01;15.40;79.60
2907;DHT22;1463;51.070;16.998;2023-04-25T13:19:29;15.50;78.50
2907;DHT22;1463;51.070;16.998;2023-04-25T13:21:56;15.70;78.70
2907;DHT22;1463;51.070;16.998;2023-04-25T13:24:24;15.90;79.80
2907;DHT22;1463;51.070;16.998;2023-04-25T13:26:52;15.90;76.60
2907;DHT22;1463;51.070;16.998;2023-04-25T13:29:21;15.60;74.50
2907;DHT22;1463;51.070;16.998;2023-04-25T13:31:48;15.40;75.50
2907;DHT22;1463;51.070;16.998;2023-04-25T13:34:15;15.30;75.20
2907;DHT22;1463;51.070;16.998;2023-04-25T13:36:43;15.10;75.90
2907;DHT22;1463;51.070;16.998;2023-04-25T13:39:11;15.10;76.70
2907;DHT22;1463;51.070;16.998;2023-04-25T13:41:39;15.00;76.70
2907;DHT22;1463;51.070;16.998;2023-04-25T13:44:06;15.00;76.90
2907;DHT22;1463;51.070;16.998;2023-04-25T13:46:35;15.00;77.40
2907;DHT22;1463;51.070;16.998;2023-04-25T13:49:03;14.80;77.00
2907;DHT22;1463;51.070;16.998;2023-04-25T13:51:31;14.60;76.70
2907;DHT22;1463;51.070;16.998;2023-04-25T13:53:59;14.50;78.10
2907;DHT22;1463;51.070;16.998;2023-04-25T13:56:26;14.50;78.60
2907;DHT22;1463;51.070;16.998;2023-04-25T13:58:54;14.50;78.90
2907;DHT22;1463;51.070;16.998;2023-04-25T14:01:22;14.40;79.80
2907;DHT22;1463;51.070;16.998;2023-04-25T14:03:51;14.40;80.30
2907;DHT22;1463;51.070;16.998;2023-04-25T14:06:18;14.50;80.00
2907;DHT22;1463;51.070;16.998;2023-04-25T14:08:49;14.50;79.10
2907;DHT22;1463;51.070;16.998;2023-04-25T14:11:16;14.30;77.20
2907;DHT22;1463;51.070;16.998;2023-04-25T14:13:45;14.40;79.10
2907;DHT22;1463;51.070;16.998;2023-04-25T14:16:13;14.30;77.70
2907;DHT22;1463;51.070;16.998;2023-04-25T14:18:40;14.40;77.80
2907;DHT22;1463;51.070;16.998;2023-04-25T14:21:09;14.50;77.80
2907;DHT22;1463;51.070;16.998;2023-04-25T14:23:37;14.80;77.70
2907;DHT22;1463;51.070;16.998;2023-04-25T14:26:04;14.90;77.10
2907;DHT22;1463;51.070;16.998;2023-04-25T14:28:32;14.80;77.20
2907;DHT22;1463;51.070;16.998;2023-04-25T14:30:59;14.80;77.60
2907;DHT22;1463;51.070;16.998;2023-04-25T14:33:27;14.80;78.90
2907;DHT22;1463;51.070;16.998;2023-04-25T14:35:54;14.80;79.60
2907;DHT22;1463;51.070;16.998;2023-04-25T14:38:23;14.70;78.90
2907;DHT22;1463;51.070;16.998;2023-04-25T14:40:51;14.60;78.40
2907;DHT22;1463;51.070;16.998;2023-04-25T14:43:19;14.50;78.10
2907;DHT22;1463;51.070;16.998;2023-04-25T14:45:47;14.50;78.70
2907;DHT22;1463;51.070;16.998;2023-04-25T14:48:14;14.50;78.90
2907;DHT22;1463;51.070;16.998;2023-04-25T14:50:43;14.40;78.70
2907;DHT22;1463;51.070;16.998;2023-04-25T14:53:11;14.30;79.60
2907;DHT22;1463;51.070;16.998;2023-04-25T14:55:40;14.20;79.40
2907;DHT22;1463;51.070;16.998;2023-04-25T14:58:08;14.20;79.70
2907;DHT22;1463;51.070;16.998;2023-04-25T15:00:36;14.20;79.80
2907;DHT22;1463;51.070;16.998;2023-04-25T15:03:04;14.20;79.70
2907;DHT22;1463;51.070;16.998;2023-04-25T15:05:33;14.10;80.00
2907;DHT22;1463;51.070;16.998;2023-04-25T15:08:02;14.10;79.20
2907;DHT22;1463;51.070;16.998;2023-04-25T15:10:29;14.00;79.90
2907;DHT22;1463;51.070;16.998;2023-04-25T15:12:58;14.00;80.70
2907;DHT22;1463;51.070;16.998;2023-04-25T15:15:26;13.80;82.30
2907;DHT22;1463;51.070;16.998;2023-04-25T15:17:54;13.80;83.50
2907;DHT22;1463;51.070;16.998;2023-04-25T15:20:22;13.80;82.70
2907;DHT22;1463;51.070;16.998;2023-04-25T15:22:50;13.70;84.00
2907;DHT22;1463;51.070;16.998;2023-04-25T15:25:18;13.60;84.60
2907;DHT22;1463;51.070;16.998;2023-04-25T15:27:45;13.70;85.40
2907;DHT22;1463;51.070;16.998;2023-04-25T15:30:16;13.60;85.50
2907;DHT22;1463;51.070;16.998;2023-04-25T15:32:44;13.50;86.70
2907;DHT22;1463;51.070;16.998;2023-04-25T15:35:12;13.40;88.30
2907;DHT22;1463;51.070;16.998;2023-04-25T15:37:40;13.40;90.20
2907;DHT22;1463;51.070;16.998;2023-04-25T15:40:09;13.40;90.60
2907;DHT22;1463;51.070;16.998;2023-04-25T15:42:39;13.40;91.50
2907;DHT22;1463;51.070;16.998;2023-04-25T15:45:09;13.40;91.90
2907;DHT22;1463;51.070;16.998;2023-04-25T15:47:38;13.40;92.00
2907;DHT22;1463;51.070;16.998;2023-04-25T15:50:07;13.50;91.40
2907;DHT22;1463;51.070;16.998;2023-04-25T15:52:36;13.40;91.50